Home > Products > Valid Products > TAF

000
FTUS46 KSTO 202000 AAA
TAFSMF
TAF AMD
KSMF 202051Z 2021/2118 10005KT 6SM -RA SCT010 OVC050
     FM210600 16004KT 4SM BR OVC025
     FM211200 32002KT 1/2SM FG OVC007=



000
FTUS46 KSTO 201700
TAFRDD
TAF
KRDD 201738Z 2018/2118 VRB03KT P6SM -RA SCT015 OVC025
      TEMPO 2018/2021 2SM RA BKN010
     FM210300 VRB04KT P6SM -RA OVC025=



000
FTUS46 KSTO 201700
TAFSCK
TAF
KSCK 201738Z 2018/2118 VRB04KT 3SM BR OVC015
      TEMPO 2018/2019 2SM BR OVC005
     FM202300 13005KT P6SM -SHRA BKN030 OVC050
     FM210600 16004KT 4SM BR OVC030
     FM211200 VRB03KT 1/2SM FG OVC003=



000
FTUS46 KSTO 201700
TAFSAC
TAF
KSAC 201738Z 2018/2118 VRB05KT 3SM BR SCT005 OVC016
      TEMPO 2018/2019 2SM BR BKN010
     FM201900 VRB05KT 3SM -RA BKN010 OVC030
     FM210300 15003KT 4SM BR BKN030 OVC050
     FM211200 32002KT 1/2SM FG OVC007=



000
FTUS46 KSTO 201700
TAFRBL
TAF
KRBL 201738Z 2018/2118 VRB04KT 6SM BR SCT010 OVC020
     FM201900 16006KT P6SM -RA SCT015 OVC025
      TEMPO 2019/2021 2SM RA BKN010
     FM210300 33004KT P6SM OVC030=



000
FTUS46 KSTO 201700
TAFSMF
TAF
KSMF 201738Z 2018/2118 VRB05KT 5SM BR OVC020
      TEMPO 2018/2019 3SM BR BKN005
     FM201900 VRB05KT 3SM -RA BKN010 OVC030
     FM210600 16004KT 4SM BR OVC025
     FM211200 32002KT 1/2SM FG OVC007=



000
FTUS46 KSTO 201700
TAFMHR
TAF
KMHR 201738Z 2018/2118 VRB05KT 2SM BR OVC004
      TEMPO 2018/2019 1/2SM FG OVC002
     FM201900 VRB05KT 3SM -RA BKN010 OVC030
     FM210600 06003KT 4SM BR OVC030
     FM211200 32002KT 1/2SM FG OVC007=



000
FTUS46 KSTO 201500 AAA
TAFSMF
TAF AMD
KSMF 201555Z 2016/2112 VRB05KT 5SM BR OVC020
      TEMPO 2016/2019 3SM BR BKN005
     FM201900 VRB05KT 6SM -RA BKN030 OVC050
     FM210000 16005KT P6SM OVC050
     FM210600 16004KT 4SM BR OVC025=



000
FTUS46 KSTO 201500 AAA
TAFMHR
TAF AMD
KMHR 201552Z 2016/2112 VRB05KT 2SM BR OVC004
      TEMPO 2016/2018 1/4SM FG OVC002
     FM202000 VRB05KT 6SM -RA BKN030 OVC050
     FM210300 06003KT 4SM BR OVC030=



000
FTUS46 KSTO 201500 AAA
TAFRDD
TAF AMD
KRDD 201527Z 2015/2112 VRB04KT 6SM BR FEW004 BKN020 OVC030
     FM201600 VRB03KT P6SM -RA SCT015 OVC025
      TEMPO 2018/2021 2SM RA BKN010
     FM210300 VRB04KT P6SM -RA OVC025=



000
FTUS46 KSTO 201500 AAA
TAFSCK
TAF AMD
KSCK 201517Z 2015/2112 VRB04KT 3SM BR OVC015
      TEMPO 2015/2017 1/2SM FG OVC003
     FM201900 VRB05KT 5SM HZ OVC050
     FM202300 13005KT P6SM -SHRA BKN030 OVC050
     FM210300 16004KT 4SM BR OVC030=



000
FTUS46 KSTO 201300 AAA
TAFSAC
TAF AMD
KSAC 201343Z 2014/2112 VRB05KT 3SM BR SCT005 OVC015
     FM201900 VRB05KT 6SM -RA BKN030 OVC050
     FM210300 15003KT 4SM BR BKN030 OVC050=



000
FTUS46 KSTO 201100
TAFMHR
TAF
KMHR 201138Z 2012/2112 VRB05KT 2SM BR OVC004
      TEMPO 2012/2015 1/2SM FG OVC002
     FM202000 VRB05KT 6SM -RA BKN030 OVC050
     FM210300 06003KT 4SM BR OVC030=



000
FTUS46 KSTO 201100
TAFRDD
TAF
KRDD 201138Z 2012/2112 VRB04KT 3SM BR BKN005 BKN019 OVC025
      TEMPO 2014/2018 4SM -RA BR BKN020
     FM201800 VRB03KT P6SM -RA SCT015 OVC025
     FM210300 VRB04KT P6SM -RA OVC025=



000
FTUS46 KSTO 201100
TAFRBL
TAF
KRBL 201138Z 2012/2112 VRB04KT 4SM BR SCT005 OVC015
     FM201800 16006KT P6SM -RA SCT015 OVC025
     FM210300 33004KT P6SM OVC030=



000
FTUS46 KSTO 201100
TAFSMF
TAF
KSMF 201138Z 2012/2112 VRB05KT 4SM BR OVC015
     FM201900 VRB05KT 6SM -RA BKN030 OVC050
     FM210000 16005KT P6SM OVC050
     FM210600 16004KT 4SM BR OVC025=



000
FTUS46 KSTO 201100
TAFSCK
TAF
KSCK 201138Z 2012/2112 29006KT 3SM BR SCT005 BKN010
     FM201600 VRB04KT 3SM BR OVC015
     FM201900 VRB05KT 5SM HZ OVC050
     FM202300 13005KT P6SM -SHRA BKN030 OVC050
     FM210300 16004KT 4SM BR OVC030=



000
FTUS46 KSTO 201100
TAFSAC
TAF
KSAC 201138Z 2012/2112 VRB05KT 2SM BR OVC004
      TEMPO 2012/2015 1/2SM FG OVC002
     FM201900 VRB05KT 6SM -RA BKN030 OVC050
     FM210300 15003KT 4SM BR BKN030 OVC050=



000
FTUS46 KSTO 200600 AAA
TAFMHR
TAF AMD
KMHR 200657Z 2007/2106 VRB05KT 2SM BR SCT003 OVC015
      TEMPO 2007/2009 2SM BR BKN003
     FM200900 VRB05KT 1SM BR OVC015
      TEMPO 2011/2015 1/2SM FG OVC003
     FM202000 VRB05KT 5SM -RA SCT025 OVC050
     FM210300 06003KT P6SM OVC050
      TEMPO 2103/2106 P6SM -RA OVC025=



000
FTUS46 KSTO 200600 AAB
TAFSCK
TAF AMD
KSCK 200638Z 2007/2106 29006KT 2SM BR FEW002 SCT015 BKN035
      TEMPO 2007/2011 1SM BR BKN002
     FM201600 VRB04KT 3SM BR OVC015
     FM201900 VRB05KT 5SM HZ OVC050
     FM202300 13005KT P6SM -SHRA SCT025 OVC050=



000
FTUS46 KSTO 200600 AAA
TAFSCK
TAF AMD
KSCK 200607Z 2006/2106 29006KT 2SM BR FEW002 SCT015 BKN035
      TEMPO 2008/2012 1SM BR OVC008
     FM201600 VRB04KT 3SM BR OVC015
     FM201900 VRB05KT 5SM HZ OVC050
     FM202300 13005KT P6SM -SHRA SCT025 OVC050=



000
FTUS46 KSTO 200600 AAA
TAFSAC
TAF AMD
KSAC 200604Z 2006/2106 32003KT 3SM BR SCT003 OVC025
      TEMPO 2006/2009 2SM BR BKN003
     FM200900 VRB05KT 1SM BR OVC015
      TEMPO 2011/2015 1/2SM FG OVC003
     FM202000 VRB05KT 5SM -RA SCT025 OVC050
     FM210300 07003KT P6SM OVC050
      TEMPO 2103/2106 P6SM -RA OVC025=



000
FTUS46 KSTO 200500
TAFSCK
TAF
KSCK 200534Z 2006/2106 VRB04KT 3SM BR SCT015 OVC035
      TEMPO 2010/2014 1SM BR OVC008
     FM201400 VRB04KT 3SM BR OVC015
     FM201900 VRB05KT 5SM HZ OVC050
     FM202300 13005KT P6SM -SHRA SCT025 OVC050=



000
FTUS46 KSTO 200500
TAFMHR
TAF
KMHR 200534Z 2006/2106 VRB05KT 6SM BR SCT025 OVC040
     FM200800 VRB05KT 4SM BR OVC025
      TEMPO 2011/2015 2SM BR OVC006
     FM202000 VRB05KT 5SM -RA SCT025 OVC050
     FM210300 06003KT P6SM OVC050
      TEMPO 2103/2106 P6SM -RA OVC025=



000
FTUS46 KSTO 200500
TAFRDD
TAF
KRDD 200534Z 2006/2106 VRB04KT 3SM BR SCT005 OVC019
      TEMPO 2006/2009 2SM BR BKN005
     FM201700 13005KT P6SM -RA SCT015 OVC025
     FM210300 VRB04KT P6SM OVC025
      TEMPO 2103/2106 P6SM -RA OVC050=



000
FTUS46 KSTO 200500
TAFSMF
TAF
KSMF 200534Z 2006/2106 33008KT 2SM BR SCT004 OVC025
      TEMPO 2006/2009 2SM BR BKN004
     FM200900 VRB05KT 1SM BR OVC015
      TEMPO 2011/2015 1/2SM FG OVC005
     FM202000 VRB05KT 5SM -RA SCT025 OVC050
     FM210300 07003KT P6SM OVC050
      TEMPO 2103/2106 P6SM -RA OVC025=



000
FTUS46 KSTO 200500
TAFRBL
TAF
KRBL 200534Z 2006/2106 VRB04KT 3SM BR SCT003 OVC015
      TEMPO 2006/2009 2SM BR BKN003
     FM201800 16006KT P6SM -RA SCT015 OVC025
     FM210300 09002KT P6SM OVC035
      TEMPO 2103/2106 P6SM -RA OVC050=



000
FTUS46 KSTO 200500
TAFSAC
TAF
KSAC 200534Z 2006/2106 VRB05KT 3SM BR SCT004 OVC025
      TEMPO 2006/2009 2SM BR BKN004
     FM200900 VRB05KT 1SM BR OVC015
      TEMPO 2011/2015 1/2SM FG OVC005
     FM202000 VRB05KT 5SM -RA SCT025 OVC050
     FM210300 07003KT P6SM OVC050
      TEMPO 2103/2106 P6SM -RA OVC025=



000
FTUS46 KSTO 200400 AAC
TAFSMF
TAF AMD
KSMF 200420Z 2004/2024 33008KT 2SM BR BKN002 OVC025
     FM200500 VRB05KT 2SM BR OVC002
     FM200900 VRB05KT 1SM BR OVC015
      TEMPO 2011/2015 1/2SM FG OVC005
     FM202100 VRB05KT 5SM -RA SCT025 OVC050=



000
FTUS46 KSTO 200400 AAB
TAFSAC
TAF AMD
KSAC 200418Z 2004/2024 VRB05KT 3SM BR SCT004 OVC040
      TEMPO 2004/2005 2SM -SHRA BKN004
     FM200500 VRB05KT 2SM BR OVC025
     FM200900 VRB05KT 1SM BR OVC015
      TEMPO 2011/2015 1/2SM FG OVC005
     FM202100 VRB05KT 5SM -RA SCT025 OVC050=



000
FTUS46 KSTO 200400 AAA
TAFMHR
TAF AMD
KMHR 200417Z 2004/2024 VRB05KT 5SM BR VCSH SCT025 OVC040
     FM200500 VRB05KT 4SM BR OVC025
     FM200900 VRB05KT 3SM BR OVC015
      TEMPO 2011/2015 1SM BR OVC006
     FM202100 VRB05KT 5SM -RA SCT025 OVC050=



000
FTUS46 KSTO 200400 AAA
TAFSCK
TAF AMD
KSCK 200416Z 2004/2024 12007KT P6SM OVC050
      TEMPO 2004/2005 4SM -SHRA BR
     FM200500 VRB04KT 3SM BR SCT015 OVC035
      TEMPO 2010/2014 1SM BR OVC006
     FM201400 VRB04KT 4SM BR OVC015
     FM201900 VRB05KT 5SM HZ OVC050
     FM202300 13005KT 5SM -SHRA BR SCT025 OVC050=



000
FTUS46 KSTO 200300 AAB
TAFRBL
TAF AMD
KRBL 200312Z 2003/2024 35004KT 4SM -SHRA BR OVC008
      TEMPO 2003/2005 2SM -SHRA OVC015
     FM200500 VRB04KT 4SM BR SCT015 OVC025
      TEMPO 2005/2007 2SM -SHRA BR OVC015
     FM200700 VRB04KT P6SM OVC025
     FM201800 16006KT P6SM -RA SCT025 OVC050=



000
FTUS46 KSTO 200300 AAC
TAFRDD
TAF AMD
KRDD 200311Z 2003/2024 VRB04KT 5SM -RA BR OVC015
      TEMPO 2003/2005 2SM -RA BR BKN005 OVC015
     FM200500 VRB04KT 5SM -SHRA SCT005 OVC015
     FM200700 VRB04KT 5SM BR OVC020
     FM201700 13005KT P6SM -SHRA SCT020 OVC050=



000
FTUS46 KSTO 200200 AAA
TAFSAC
TAF AMD
KSAC 200226Z 2002/2024 VRB05KT 5SM BR SCT004 OVC040
      TEMPO 2002/2005 -SHRA BKN004
     FM200500 VRB05KT 4SM BR OVC025
     FM200900 VRB05KT 2SM BR OVC015
      TEMPO 2011/2015 1SM BR OVC005
     FM202100 VRB05KT 5SM -RA SCT025 OVC050=



000
FTUS46 KSTO 200200 AAA
TAFSAC
TAF AMD
KSAC 200226Z 2002/2024 VRB05KT 5SM BR SCT004 OVC040
      TEMPO 2002/2005 -SHRA BKN004
     FM200500 VRB05KT 4SM BR OVC025
     FM200900 VRB05KT 2SM BR OVC015
      TEMPO 2011/2015 1SM BR OVC005
     FM202100 VRB05KT 5SM -RA SCT025 OVC050=



000
FTUS46 KSTO 200200 AAB
TAFSMF
TAF AMD
KSMF 200225Z 2002/2024 33008KT 4SM BR BKN005 OVC035
      TEMPO 2002/2005 -SHRA BKN002
     FM200500 VRB05KT 4SM BR OVC025
     FM200900 VRB05KT 4SM BR OVC015
     FM202100 VRB05KT 5SM -RA SCT025 OVC050=



000
FTUS46 KSTO 200200 AAB
TAFSMF
TAF AMD
KSMF 200225Z 2002/2024 33008KT 4SM BR BKN005 OVC035
      TEMPO 2002/2005 -SHRA BKN002
     FM200500 VRB05KT 4SM BR OVC025
     FM200900 VRB05KT 4SM BR OVC015
     FM202100 VRB05KT 5SM -RA SCT025 OVC050=



000
FTUS46 KSTO 200200 AAA
TAFRBL
TAF AMD
KRBL 200205Z 2002/2024 35004KT 4SM -SHRA BR OVC008
      TEMPO 2002/2003 2SM -SHRA OVC015
     FM200300 VRB04KT 4SM BR SCT015 OVC025
      TEMPO 2003/2006 2SM -SHRA BR OVC015
     FM200700 VRB04KT P6SM OVC025
     FM201800 16006KT P6SM -RA SCT025 OVC050=



000
FTUS46 KSTO 200200 AAB
TAFRDD
TAF AMD
KRDD 200203Z 2002/2024 35003KT 5SM -RA BR OVC015
      TEMPO 2002/2003 2SM -RA BR BKN005 OVC015
     FM200300 VRB04KT 5SM -SHRA SCT005 OVC015
     FM200700 VRB04KT 5SM BR OVC020
     FM201700 13005KT P6SM -SHRA SCT020 OVC050=



000
FTUS46 KSTO 200100 AAA
TAFRDD
TAF AMD
KRDD 200109Z 2001/2024 35003KT 5SM -RA BR OVC015
      TEMPO 2001/2002 1SM -RA BR BKN005 OVC015
     FM200200 VRB04KT 5SM -SHRA SCT005 OVC015
     FM200700 VRB04KT 5SM BR OVC020
     FM201700 13005KT P6SM -SHRA SCT020 OVC050=



000
FTUS46 KSTO 200100 AAA
TAFSMF
TAF AMD
KSMF 200108Z 2001/2024 VRB05KT 4SM BR SCT006 OVC035
      TEMPO 2001/2005 -SHRA OVC025
     FM200500 VRB05KT 4SM BR OVC025
     FM200900 VRB05KT 4SM BR OVC015
     FM202100 VRB05KT 5SM -RA SCT025 OVC050=



000
FTUS46 KSTO 192300
TAFSAC
TAF
KSAC 192334Z 2000/2024 VRB05KT 5SM BR VCSH SCT025 OVC050
      TEMPO 2001/2005 OVC025
     FM200500 VRB05KT 4SM BR OVC025
     FM200900 VRB05KT 2SM BR OVC015
      TEMPO 2011/2015 1SM BR OVC005
     FM202100 VRB05KT 5SM -RA SCT025 OVC050=



000
FTUS46 KSTO 192300
TAFSCK
TAF
KSCK 192334Z 2000/2024 12007KT P6SM OVC050
      TEMPO 2000/2004 4SM -SHRA BR
     FM200800 VRB04KT 3SM BR SCT015 OVC025
      TEMPO 2010/2014 1SM BR OVC006
     FM201400 VRB04KT 4SM BR OVC015
     FM201900 VRB05KT 5SM HZ OVC050
     FM202300 13005KT 5SM -SHRA BR SCT025 OVC050=



000
FTUS46 KSTO 192300
TAFRBL
TAF
KRBL 192334Z 2000/2024 VRB04KT 1SM -RA BR OVC008
      TEMPO 2000/2002 4SM -RA OVC015
     FM200200 VRB04KT P6SM VCSH SCT015 OVC025
      TEMPO 2002/2006 4SM -RA BR OVC015
     FM200700 VRB04KT P6SM OVC025
     FM201800 16006KT P6SM -RA SCT025 OVC050=



000
FTUS46 KSTO 192300
TAFMHR
TAF
KMHR 192334Z 2000/2024 VRB05KT 6SM BR VCSH SCT025 OVC050
     FM200500 VRB05KT 4SM BR OVC025
     FM200900 VRB05KT 3SM BR OVC015
      TEMPO 2011/2015 1SM BR OVC006
     FM202100 VRB05KT 5SM -RA SCT025 OVC050=



000
FTUS46 KSTO 192300
TAFSMF
TAF
KSMF 192334Z 2000/2024 VRB05KT P6SM VCSH SCT025 OVC050
      TEMPO 2001/2005 OVC025
     FM200500 VRB05KT 4SM BR OVC025
     FM200900 VRB05KT 4SM BR OVC015
     FM202100 VRB05KT 5SM -RA SCT025 OVC050=



000
FTUS46 KSTO 192300
TAFRDD
TAF
KRDD 192334Z 2000/2024 VRB04KT 5SM -RA BR SCT005 OVC025
      TEMPO 2000/2002 4SM -RA BR OVC015
     FM200200 VRB04KT 5SM -SHRA SCT005 OVC015
     FM200700 VRB04KT 5SM BR OVC020
     FM201700 13005KT P6SM -SHRA SCT020 OVC050=



000
FTUS46 KSTO 192200 AAB
TAFRDD
TAF AMD
KRDD 192246Z 1923/2018 VRB04KT 1 1/2SM -RA BR BKN004 OVC015
      TEMPO 1923/1924 3SM -RA
     FM200000 VRB04KT 4SM -RA OVC030
      TEMPO 2002/2006 3SM -RA BR OVC015
     FM200700 VRB04KT P6SM OVC025=



000
FTUS46 KSTO 192100 AAB
TAFRBL
TAF AMD
KRBL 192134Z 1922/2018 VRB04KT 3SM -RA BR FEW005 OVC016
     FM200000 14005KT 6SM -RA OVC025
     FM200700 32004KT P6SM OVC025=



000
FTUS46 KSTO 191900 AAA
TAFRDD
TAF AMD
KRDD 191913Z 1919/2018 30004KT 4SM -RA BR OVC060
     FM192100 VRB05KT P6SM -RA OVC050
      TEMPO 1921/1924 5SM -RA
     FM200000 VRB04KT 4SM -RA OVC030
      TEMPO 2002/2006 3SM -RA BR OVC015
     FM200700 VRB04KT P6SM OVC025=



000
FTUS46 KSTO 191900 AAA
TAFSAC
TAF AMD
KSAC 191913Z 1919/2018 00000KT 4SM -SHRA OVC050
     FM192300 15007KT 5SM BR VCSH OVC035
     FM200500 VRB05KT 4SM BR OVC020
     FM201400 VRB05KT 4SM BR OVC015=



000
FTUS46 KSTO 191900 AAA
TAFSMF
TAF AMD
KSMF 191913Z 1919/2018 30006KT 6SM -SHRA BR OVC050
     FM192300 15008KT 5SM BR VCSH OVC035
     FM200500 VRB05KT 4SM BR OVC025=



000
FTUS46 KSTO 191900 AAA
TAFRBL
TAF AMD
KRBL 191913Z 1919/2018 VRB04KT 3SM RA BR OVC050
     FM192000 VRB05KT 5SM -RA OVC050
     FM200000 14005KT 6SM -RA OVC025
     FM200700 32004KT P6SM OVC025=



000
FTUS46 KSTO 191900 AAA
TAFMHR
TAF AMD
KMHR 191913Z 1919/2018 VRB05KT 4SM -SHRA BR OVC050
     FM192300 15007KT P6SM VCSH OVC040
     FM200500 VRB05KT P6SM OVC025
      TEMPO 2012/2016 4SM BR OVC020=



000
FTUS46 KSTO 191700
TAFSAC
TAF
KSAC 191738Z 1918/2018 14005KT P6SM -SHRA OVC050
     FM192300 15007KT P6SM VCSH OVC035
     FM200500 VRB05KT 4SM BR OVC020
     FM201400 VRB05KT 4SM BR OVC015=



000
FTUS46 KSTO 191700
TAFSMF
TAF
KSMF 191738Z 1918/2018 15005KT P6SM -SHRA OVC050
     FM192300 15008KT P6SM VCSH OVC035
     FM200500 VRB05KT 4SM BR OVC025=



000
FTUS46 KSTO 191700
TAFSCK
TAF
KSCK 191738Z 1918/2018 13008KT 5SM HZ VCSH OVC060
      TEMPO 1918/1920 3SM -RA
     FM200000 VRB04KT 5SM BR OVC040
      TEMPO 2000/2004 -SHRA
     FM200800 VRB04KT 4SM BR SCT015 OVC025
      TEMPO 2010/2014 2SM BR OVC006
     FM201400 VRB04KT 4SM BR OVC010=



000
FTUS46 KSTO 191700
TAFMHR
TAF
KMHR 191738Z 1918/2018 14005KT P6SM -SHRA OVC050
     FM192300 15007KT P6SM VCSH OVC040
     FM200500 VRB05KT P6SM OVC025
      TEMPO 2012/2016 4SM BR OVC020=



000
FTUS46 KSTO 191700
TAFRDD
TAF
KRDD 191738Z 1918/2018 35005KT P6SM -RA OVC050
     FM200000 VRB04KT 4SM -RA OVC030
      TEMPO 2002/2006 3SM -RA BR OVC015
     FM200700 VRB04KT P6SM OVC025=



000
FTUS46 KSTO 191700
TAFRBL
TAF
KRBL 191738Z 1918/2018 VRB04KT P6SM -RA OVC060
     FM200000 14005KT 6SM -RA OVC025
     FM200700 32004KT P6SM OVC025=



000
FTUS46 KSTO 191600 AAA
TAFSCK
TAF AMD
KSCK 191606Z 1916/2012 13008KT 2SM -RA OVC050
      TEMPO 1917/1920 5SM -RA OVC070
     FM192100 14009KT 5SM HZ VCSH OVC050
     FM200300 VRB04KT 5SM BR VCSH OVC035
     FM200800 32004KT 2SM BR SCT015 OVC025=



000
FTUS46 KSTO 191100
TAFRDD
TAF
KRDD 191125Z 1912/2012 VRB04KT P6SM BKN100 OVC200
     FM191400 VRB05KT P6SM VCSH OVC035
     FM191900 18005KT P6SM -SHRA SCT020 OVC030
     FM200300 31004KT P6SM OVC015=



000
FTUS46 KSTO 191100
TAFRBL
TAF
KRBL 191125Z 1912/2012 33007KT P6SM BKN100 OVC200
     FM191400 VRB04KT P6SM OVC060
     FM191900 16005KT P6SM -SHRA SCT020 OVC035
     FM200300 32004KT P6SM OVC015=



000
FTUS46 KSTO 191100
TAFSAC
TAF
KSAC 191125Z 1912/2012 VRB04KT P6SM OVC100
     FM191600 15005KT P6SM -SHRA OVC050
     FM200200 14004KT 5SM BR VCSH OVC025
     FM200600 13004KT 3SM BR OVC015=



000
FTUS46 KSTO 191100
TAFSMF
TAF
KSMF 191125Z 1912/2012 VRB04KT P6SM OVC100
     FM191600 15005KT P6SM -SHRA OVC050
     FM200200 15003KT 5SM BR VCSH OVC025
     FM200600 15004KT 3SM BR OVC015=



000
FTUS46 KSTO 191100
TAFMHR
TAF
KMHR 191125Z 1912/2012 VRB04KT P6SM OVC100
     FM191600 15005KT P6SM -SHRA OVC050
     FM200200 14004KT 5SM BR VCSH OVC025
     FM200600 13004KT 3SM BR OVC015=



000
FTUS46 KSTO 191100
TAFSCK
TAF
KSCK 191125Z 1912/2012 14006KT 5SM BR OVC100
     FM191600 14006KT 6SM -SHRA OVC050
     FM200300 VRB04KT 5SM BR VCSH OVC035
     FM200800 32004KT 2SM BR SCT015 OVC025=



000
FTUS46 KSTO 190700 AAB
TAFSCK
TAF AMD
KSCK 190701Z 1907/2006 14006KT 6SM BR SCT100 OVC200
     FM191100 14006KT 3SM BR OVC080
     FM191800 14006KT 6SM -SHRA HZ OVC050
     FM200300 VRB04KT 5SM BR OVC050 PROB30 2003/2006 -SHRA OVC035=



000
FTUS46 KSTO 190500 AAA
TAFSCK
TAF AMD
KSCK 190523Z 1905/2006 14006KT 4SM BR SCT150 OVC200
     FM191100 14006KT 2SM BR OVC080
     FM191800 14006KT 6SM -SHRA HZ OVC050
     FM200300 VRB04KT 5SM BR OVC050 PROB30 2003/2006 -SHRA OVC035=



000
FTUS46 KSTO 190500
TAFSCK
TAF
KSCK 190521Z 1906/2006 14006KT P6SM SCT150 OVC200
     FM191100 14006KT 4SM BR OVC080
     FM191800 14006KT 6SM -SHRA HZ OVC050
     FM200300 VRB04KT 5SM BR OVC050 PROB30 2003/2006 -SHRA OVC035=



000
FTUS46 KSTO 190500
TAFSAC
TAF
KSAC 190521Z 1906/2006 VRB04KT P6SM SCT150 OVC200
     FM191200 VRB04KT P6SM OVC080
     FM191800 15005KT P6SM -SHRA OVC050
     FM200300 VRB04KT 5SM BR OVC025 PROB30 2003/2006 -SHRA OVC015=



000
FTUS46 KSTO 190500
TAFRBL
TAF
KRBL 190521Z 1906/2006 33007KT P6SM BKN150 OVC250
     FM191600 VRB04KT P6SM OVC060 PROB30 1916/1919 -RA OVC050
     FM191900 VRB05KT P6SM -SHRA OVC035
     FM200300 VRB04KT P6SM OVC025 PROB30 2003/2006 -SHRA OVC015=



000
FTUS46 KSTO 190500
TAFRDD
TAF
KRDD 190521Z 1906/2006 VRB04KT P6SM BKN150 OVC250
     FM191500 VRB05KT P6SM VCSH OVC035 PROB30 1916/1919 -RA OVC050
     FM191900 VRB05KT P6SM -SHRA OVC035
     FM200300 VRB04KT P6SM OVC025 PROB30 2003/2006 -SHRA OVC015=



000
FTUS46 KSTO 190500
TAFSMF
TAF
KSMF 190521Z 1906/2006 VRB04KT P6SM SCT150 OVC200
     FM191200 VRB04KT P6SM OVC100
     FM191800 15005KT P6SM -SHRA OVC050
     FM200300 VRB04KT 5SM BR OVC025 PROB30 2003/2006 -SHRA OVC015=



000
FTUS46 KSTO 190500
TAFMHR
TAF
KMHR 190521Z 1906/2006 VRB04KT P6SM SCT150 OVC200
     FM191200 VRB04KT P6SM OVC080
     FM191800 16005KT P6SM -SHRA OVC050
     FM200300 VRB04KT 5SM BR OVC025 PROB30 2003/2006 -SHRA OVC015=



000
FTUS46 KSTO 182300
TAFSMF
TAF
KSMF 182320Z 1900/1924 VRB04KT P6SM SCT150 OVC200
     FM191200 VRB04KT P6SM OVC100
     FM191800 15005KT P6SM -SHRA OVC050=



000
FTUS46 KSTO 182300
TAFRDD
TAF
KRDD 182320Z 1900/1924 VRB04KT P6SM BKN150 OVC250
     FM191500 VRB05KT P6SM VCSH OVC035 PROB30 1916/1919 -RA OVC050
     FM191900 VRB05KT P6SM -SHRA OVC035=



000
FTUS46 KSTO 182300
TAFSAC
TAF
KSAC 182320Z 1900/1924 VRB04KT P6SM SCT150 OVC200
     FM191200 VRB04KT P6SM OVC080
     FM191800 15005KT P6SM -SHRA OVC050=



000
FTUS46 KSTO 182300
TAFMHR
TAF
KMHR 182320Z 1900/1924 VRB04KT P6SM SCT150 OVC200
     FM191200 VRB04KT P6SM OVC080
     FM191800 16005KT P6SM -SHRA OVC050=



000
FTUS46 KSTO 182300
TAFSCK
TAF
KSCK 182320Z 1900/1924 14006KT P6SM SCT150 OVC200
     FM191100 14006KT 4SM BR OVC080
     FM191800 14006KT P6SM -SHRA OVC050=



000
FTUS46 KSTO 182300
TAFRBL
TAF
KRBL 182320Z 1900/1924 33007KT P6SM BKN150 OVC250
     FM191600 VRB04KT P6SM OVC060 PROB30 1916/1919 -RA OVC050
     FM191900 VRB05KT P6SM -SHRA OVC035=



000
FTUS46 KSTO 181700
TAFSAC
TAF
KSAC 181730Z 1818/1918 VRB04KT P6SM SCT150 OVC200
     FM191200 VRB04KT P6SM OVC080
      TEMPO 1913/1917 6SM BR=



000
FTUS46 KSTO 181700
TAFSCK
TAF
KSCK 181730Z 1818/1918 14006KT P6SM SCT150 OVC200
     FM191100 14006KT 4SM BR OVC080=



000
FTUS46 KSTO 181700
TAFRBL
TAF
KRBL 181730Z 1818/1918 33007KT P6SM BKN150 OVC250
     FM191600 VRB04KT P6SM OVC060 PROB30 1916/1918 -RA OVC050=



000
FTUS46 KSTO 181700
TAFSMF
TAF
KSMF 181730Z 1818/1918 VRB04KT P6SM SCT150 OVC200
     FM191200 VRB04KT P6SM OVC080
      TEMPO 1914/1918 6SM BR=



000
FTUS46 KSTO 181700
TAFMHR
TAF
KMHR 181730Z 1818/1918 VRB04KT P6SM SCT150 OVC200
     FM191200 VRB04KT P6SM OVC080=



000
FTUS46 KSTO 181700
TAFRDD
TAF
KRDD 181730Z 1818/1918 VRB04KT P6SM BKN150 OVC250
     FM191500 VRB05KT P6SM VCSH OVC050=



000
FTUS46 KSTO 181400 AAA
TAFSCK
TAF AMD
KSCK 181404Z 1814/1912 VRB02KT 5SM BR SCT250
      TEMPO 1814/1816 2SM BR FEW002
     FM181600 13005KT P6SM BKN250
     FM190900 14006KT P6SM BKN100 OVC200=



000
FTUS46 KSTO 181100 RRA
TAFMHR
TAF
KMHR 181145Z 1812/1912 31003KT P6SM SCT250
     FM181900 VRB03KT P6SM BKN250
     FM190800 16004KT P6SM BKN100 OVC200=



000
FTUS46 KSTO 181100 RRA
TAFRDD
TAF
KRDD 181145Z 1812/1912 VRB03KT P6SM SCT250
     FM182200 14004KT P6SM BKN250
     FM190700 VRB03KT P6SM BKN100 OVC200=



000
FTUS46 KSTO 181100 RRA
TAFSCK
TAF
KSCK 181145Z 1812/1912 VRB02KT 5SM BR SCT250
     FM181300 VRB02KT 2SM BR FEW003
      TEMPO 1813/1816 1/2SM FG VV001
     FM181600 13005KT P6SM BKN250
     FM190900 14006KT P6SM BKN100 OVC200=



000
FTUS46 KSTO 181100 RRA
TAFSAC
TAF
KSAC 181145Z 1812/1912 VRB04KT P6SM SCT250
     FM181400 VRB04KT 5SM BR SCT250
     FM181600 VRB04KT P6SM BKN250
     FM190800 16004KT P6SM BKN100 OVC200=



000
FTUS46 KSTO 181100 RRA
TAFRBL
TAF
KRBL 181145Z 1812/1912 33007KT P6SM SCT250
     FM182200 32006KT P6SM BKN250
     FM190700 32003KT P6SM BKN100 OVC200=



000
FTUS46 KSTO 181100 RRA
TAFSMF
TAF
KSMF 181145Z 1812/1912 04003KT P6SM SCT250
     FM181400 05003KT 5SM BR SCT250
     FM181600 VRB04KT P6SM BKN250
     FM190800 19004KT P6SM BKN100 OVC200=



000
FTUS46 KSTO 181000 AAA
TAFSCK
TAF AMD
KSCK 181000Z 1810/1906 VRB02KT 5SM BR SCT250
     FM181200 VRB02KT 2SM BR FEW003
      TEMPO 1812/1816 1/2SM FG VV001
     FM181600 13005KT P6SM BKN250=



000
FTUS46 KSTO 181000 AAA
TAFSCK
TAF AMD
KSCK 181000Z 1810/1906 VRB02KT 5SM BR SCT250
     FM181200 VRB02KT 2SM BR FEW003
      TEMPO 1812/1816 1/2SM FG VV001
     FM181600 13005KT P6SM BKN250=



000
FTUS46 KSTO 180500
TAFMHR
TAF
KMHR 180520Z 1806/1906 31003KT P6SM SCT250
     FM181900 VRB03KT P6SM BKN250=



000
FTUS46 KSTO 180500
TAFSMF
TAF
KSMF 180520Z 1806/1906 VRB04KT P6SM SCT250
     FM181500 VRB04KT 5SM HZ SCT250
     FM181900 VRB04KT P6SM BKN250=



000
FTUS46 KSTO 180500
TAFRBL
TAF
KRBL 180520Z 1806/1906 01005KT P6SM SCT250
     FM182200 32005KT P6SM BKN250=



000
FTUS46 KSTO 180500
TAFSCK
TAF
KSCK 180520Z 1806/1906 VRB04KT P6SM SCT250
     FM180800 VRB04KT 5SM HZ SCT250
     FM182200 VRB05KT P6SM BKN250=



000
FTUS46 KSTO 180500
TAFSAC
TAF
KSAC 180520Z 1806/1906 VRB04KT P6SM SCT250
     FM181500 VRB04KT 5SM HZ SCT250
     FM181900 VRB04KT P6SM BKN250=



000
FTUS46 KSTO 180500
TAFRDD
TAF
KRDD 180520Z 1806/1906 VRB04KT P6SM SCT250
     FM182200 VRB04KT P6SM BKN250=



000
FTUS46 KSTO 172300
TAFSAC
TAF
KSAC 172322Z 1800/1824 33006KT P6SM SCT250
     FM180200 VRB03KT P6SM BKN250
     FM181500 VRB04KT 5SM HZ BKN250
     FM181900 VRB04KT P6SM BKN250=



000
FTUS46 KSTO 172300
TAFSCK
TAF
KSCK 172322Z 1800/1824 VRB04KT P6SM SCT250
     FM180100 VRB04KT P6SM BKN250
     FM180800 VRB04KT 5SM HZ BKN250
     FM182200 VRB05KT P6SM BKN250=



000
FTUS46 KSTO 172300
TAFRBL
TAF
KRBL 172322Z 1800/1824 01005KT P6SM SCT250
     FM180200 32005KT P6SM BKN250=



000
FTUS46 KSTO 172300
TAFMHR
TAF
KMHR 172322Z 1800/1824 31003KT P6SM SCT250
     FM180200 VRB03KT P6SM BKN250=



000
FTUS46 KSTO 172300
TAFSMF
TAF
KSMF 172322Z 1800/1824 33006KT P6SM SCT250
     FM180200 VRB04KT P6SM BKN250
     FM181500 VRB04KT 5SM HZ BKN250
     FM181900 VRB04KT P6SM BKN250=



000
FTUS46 KSTO 172300
TAFRDD
TAF
KRDD 172322Z 1800/1824 VRB04KT P6SM SCT250
     FM180200 VRB04KT P6SM BKN250=



    US Dept of Commerce
    National Oceanic and Atmospheric Administration
    National Weather Service
    1325 East West Highway
    Silver Spring, MD 20910
    Page Author: NWS Internet Services Team
Disclaimer
Information Quality
Credits
Glossary
Privacy Policy
Freedom of Information Act (FOIA)
About Us
Career Opportunities